Terminal Aerodrome Forecast
Issued by NWS Cleveland, OH

Home | Current Version | Previous Version | Graphics & Text | Print | Product List | Glossary On
Versions: 1 2 3 4 5 6 7 8 9 10 11 12 13 14 15 16
000
FTUS41 KCLE 301700
TAFERI
TAF
KERI 301726Z 3018/0118 VRB05KT 6SM -RA BR OVC050
      TEMPO 3018/3022 3SM -RA BR BKN015 OVC035
     FM302200 35006KT 6SM BR SCT007 OVC025
      TEMPO 3022/0102 3SM -RA BKN007
     FM010500 02004KT 3SM BR BKN007
     FM010800 08004KT 1SM BR BKN005 OVC012
     FM011500 09007KT 6SM HZ OVC012=

USA.gov is the U.S. government's official web portal to all federal, state and local government web resources and services.